Terminal Aerodrome Forecast
Issued by NWS

Home | Current Version | Previous Version | Graphics & Text | Print | Product List | Glossary On
Versions: 1 2 3 4 5 6 7 8 9 10 11 12 13 14 15 16 17 18 19 20 21 22 23 24 25 26 27
180
FTUS43 KBIS 281448 AAC
TAFMOT
TAF AMD
KMOT 281448Z 2815/2912 11009KT 1/4SM FG VV002
      TEMPO 2815/2816 3/4SM BR OVC003
     FM281600 10009KT 1SM BR OVC004
     FM281700 09008KT P6SM OVC006
     FM282000 10008KT P6SM OVC008
     FM290400 12006KT P6SM VCSH OVC008
     FM290600 17005KT P6SM OVC025=

USA.gov is the U.S. government's official web portal to all federal, state and local government web resources and services.